createdAt,value
2022-10-09T00:05:11.738Z,54
2022-10-09T00:10:51.904Z,52
2022-10-09T00:16:32.119Z,54
2022-10-09T00:22:12.712Z,36
2022-10-09T00:27:52.547Z,56
2022-10-09T00:33:32.339Z,50
2022-10-09T00:39:12.350Z,46
2022-10-09T00:44:52.279Z,46
2022-10-09T00:50:32.146Z,52
2022-10-09T00:56:12.068Z,48
2022-10-09T01:01:52.839Z,48
2022-10-09T01:07:33.456Z,36
2022-10-09T01:13:13.388Z,44
2022-10-09T01:18:53.560Z,42
2022-10-09T01:24:33.541Z,52
2022-10-09T01:30:13.461Z,42
2022-10-09T01:35:53.512Z,50
2022-10-09T01:41:33.295Z,40
2022-10-09T01:47:13.325Z,40
2022-10-09T01:52:54.890Z,52
2022-10-09T01:58:37.761Z,30
2022-10-09T02:04:20.015Z,38
2022-10-09T02:15:43.534Z,40
2022-10-09T02:21:23.483Z,46
2022-10-09T02:27:03.542Z,52
2022-10-09T02:32:43.157Z,58
2022-10-09T02:38:22.953Z,56
2022-10-09T02:44:02.774Z,44
2022-10-09T02:49:42.521Z,36
2022-10-09T02:55:22.390Z,56
2022-10-09T03:01:02.145Z,44
2022-10-09T03:06:42.174Z,56
2022-10-09T03:12:24.945Z,44
2022-10-09T03:18:04.921Z,48
2022-10-09T03:23:44.675Z,48
2022-10-09T03:29:24.623Z,52
2022-10-09T03:35:05.101Z,46
2022-10-09T03:40:45.332Z,44
2022-10-09T03:46:25.598Z,36
2022-10-09T03:52:05.994Z,54
2022-10-09T04:04:12.703Z,46
2022-10-09T04:09:52.278Z,54
2022-10-09T04:15:32.017Z,42
2022-10-09T04:21:15.273Z,52
2022-10-09T04:26:55.094Z,54
2022-10-09T04:32:34.938Z,44
2022-10-09T04:38:14.911Z,52
2022-10-09T04:43:55.252Z,42
2022-10-09T04:49:35.172Z,40
2022-10-09T04:55:14.879Z,48
2022-10-09T05:00:55.389Z,56
2022-10-09T05:06:35.904Z,46
2022-10-09T05:12:15.743Z,44
2022-10-09T05:17:55.679Z,42
2022-10-09T05:23:35.501Z,54
2022-10-09T05:29:15.277Z,44
2022-10-09T05:34:55.151Z,44
2022-10-09T05:40:35.090Z,50
2022-10-09T05:46:15.406Z,36
2022-10-09T05:51:55.738Z,52
2022-10-09T05:57:37.681Z,46
2022-10-09T06:03:17.943Z,42
2022-10-09T06:08:58.343Z,42
2022-10-09T06:14:38.512Z,46
2022-10-09T06:20:18.683Z,42
2022-10-09T06:25:59.111Z,52
2022-10-09T06:31:39.652Z,54
2022-10-09T06:37:19.993Z,58
2022-10-09T06:43:01.034Z,40
2022-10-09T06:48:41.690Z,46
2022-10-09T06:54:22.334Z,48
2022-10-09T07:00:04.372Z,56
2022-10-09T07:05:45.906Z,42
2022-10-09T07:11:26.369Z,46
2022-10-09T07:17:06.747Z,46
2022-10-09T07:27:49.565Z,20
2022-10-09T07:33:30.128Z,44
2022-10-09T07:39:10.599Z,56
2022-10-09T07:50:31.768Z,48
2022-10-09T07:56:12.723Z,46
2022-10-09T08:01:53.755Z,46
2022-10-09T08:07:35.623Z,52
2022-10-09T08:13:18.290Z,58
2022-10-09T08:18:58.207Z,58
2022-10-09T08:24:38.116Z,48
2022-10-09T08:30:18.826Z,48
2022-10-09T08:35:58.663Z,42
2022-10-09T08:41:38.927Z,48
2022-10-09T08:47:19.729Z,36
2022-10-09T08:53:00.707Z,12
2022-10-09T08:58:40.844Z,10
2022-10-09T09:04:21.179Z,22
2022-10-09T09:10:01.794Z,22
2022-10-09T09:15:42.753Z,18
2022-10-09T09:21:23.638Z,2
2022-10-09T09:27:03.616Z,16
2022-10-09T09:32:46.777Z,24
2022-10-09T09:38:30.957Z,4
2022-10-09T09:44:11.609Z,0
2022-10-09T09:49:51.813Z,0
2022-10-09T09:55:31.913Z,0
2022-10-09T10:01:12.838Z,2
2022-10-09T10:06:53.856Z,0
2022-10-09T10:12:37.120Z,0
2022-10-09T10:18:16.989Z,0
2022-10-09T10:29:40.726Z,2
2022-10-09T10:35:21.426Z,0
2022-10-09T10:41:01.515Z,2
2022-10-09T10:46:41.892Z,0
2022-10-09T10:52:22.402Z,0
2022-10-09T10:58:02.414Z,2
2022-10-09T11:03:43.146Z,0
2022-10-09T11:09:23.290Z,0
2022-10-09T11:15:04.544Z,0
2022-10-09T11:20:44.956Z,0
2022-10-09T11:26:24.797Z,0
2022-10-09T11:32:09.616Z,0
2022-10-09T11:37:52.102Z,0
2022-10-09T11:43:33.648Z,0
2022-10-09T11:49:13.702Z,0
2022-10-09T12:00:34.182Z,4
2022-10-09T12:06:14.799Z,0
2022-10-09T12:11:55.639Z,0
2022-10-09T12:17:36.635Z,0
2022-10-09T12:23:29.331Z,0
2022-10-09T12:29:14.033Z,0
2022-10-09T12:34:54.305Z,0
2022-10-09T12:40:35.107Z,0
2022-10-09T12:46:16.034Z,2
2022-10-09T12:51:57.208Z,0
2022-10-09T12:57:37.377Z,0
2022-10-09T13:03:17.755Z,0
2022-10-09T13:08:58.019Z,2
2022-10-09T13:14:38.356Z,0
2022-10-09T13:20:18.925Z,0
2022-10-09T13:26:04.224Z,0
2022-10-09T13:31:45.006Z,2
2022-10-09T13:43:56.299Z,8
2022-10-09T13:49:47.056Z,0
2022-10-09T13:55:26.543Z,0
2022-10-09T14:01:08.512Z,0
2022-10-09T14:07:01.813Z,0
2022-10-09T14:12:41.821Z,2
2022-10-09T14:18:22.141Z,4
2022-10-09T14:24:06.806Z,10
2022-10-09T14:29:47.039Z,58
2022-10-09T14:35:29.879Z,56
2022-10-09T14:41:09.946Z,52
2022-10-09T14:46:50.089Z,44
2022-10-09T14:52:30.835Z,44
2022-10-09T14:58:11.095Z,62
2022-10-09T15:03:51.787Z,46
2022-10-09T15:09:32.469Z,60
2022-10-09T15:15:12.723Z,56
2022-10-09T15:20:56.425Z,50
2022-10-09T15:26:36.737Z,52
2022-10-09T15:32:17.354Z,58
2022-10-09T15:37:57.592Z,56
2022-10-09T15:43:41.499Z,58
2022-10-09T15:49:21.977Z,56
2022-10-09T15:55:02.107Z,48
2022-10-09T16:00:42.081Z,96
2022-10-09T16:06:22.293Z,54
2022-10-09T16:12:02.705Z,48
2022-10-09T16:17:42.732Z,54
2022-10-09T16:23:22.997Z,58
2022-10-09T16:29:03.827Z,54
2022-10-09T16:34:43.897Z,56
2022-10-09T16:41:13.824Z,44
2022-10-09T16:46:55.789Z,56
2022-10-09T16:52:35.675Z,56
2022-10-09T16:58:16.033Z,58
2022-10-09T17:03:56.313Z,52
2022-10-09T17:09:42.261Z,48
2022-10-09T17:15:22.515Z,46
2022-10-09T17:21:02.784Z,40
2022-10-09T17:26:46.199Z,46
2022-10-09T17:32:26.550Z,46
2022-10-09T17:38:06.984Z,48
2022-10-09T17:43:49.093Z,40
2022-10-09T17:49:29.491Z,46
2022-10-09T17:55:09.751Z,48
2022-10-09T18:00:50.598Z,48
2022-10-09T18:06:31.341Z,46
2022-10-09T18:12:11.568Z,58
2022-10-09T18:17:53.440Z,56
2022-10-09T18:23:33.897Z,56
2022-10-09T18:29:14.073Z,42
2022-10-09T18:34:54.408Z,58
2022-10-09T18:40:45.493Z,46
2022-10-09T18:46:26.752Z,48
2022-10-09T18:52:09.964Z,58
2022-10-09T19:03:34.160Z,46
2022-10-09T19:09:17.386Z,46
2022-10-09T19:14:58.347Z,52
2022-10-09T19:20:38.871Z,56
2022-10-09T19:26:19.372Z,58
2022-10-09T19:32:12.129Z,54
2022-10-09T19:37:55.718Z,54
2022-10-09T19:43:51.878Z,46
2022-10-09T19:49:44.680Z,54
2022-10-09T19:55:35.808Z,48
2022-10-09T20:01:19.321Z,44
2022-10-09T20:07:01.123Z,56
2022-10-09T20:13:01.657Z,44
2022-10-09T20:18:41.801Z,56
2022-10-09T20:24:22.206Z,56
2022-10-09T20:30:03.407Z,48
2022-10-09T20:35:43.606Z,44
2022-10-09T20:41:29.839Z,46
2022-10-09T20:47:16.610Z,48
2022-10-09T20:52:56.472Z,46
2022-10-09T20:58:36.281Z,54
2022-10-09T21:04:16.267Z,46
2022-10-09T21:09:55.991Z,52
2022-10-09T21:15:43.969Z,56
2022-10-09T21:21:23.983Z,46
2022-10-09T21:27:04.150Z,58
2022-10-09T21:32:44.055Z,44
2022-10-09T21:38:27.669Z,56
2022-10-09T21:44:07.770Z,44
2022-10-09T21:49:48.819Z,54
2022-10-09T21:55:29.442Z,50
2022-10-09T22:01:10.804Z,56
2022-10-09T22:06:51.688Z,38
2022-10-09T22:12:34.276Z,38
2022-10-09T22:18:17.485Z,58
2022-10-09T22:23:57.390Z,46
2022-10-09T22:29:37.269Z,42
2022-10-09T22:35:17.101Z,46
2022-10-09T22:40:58.219Z,54
2022-10-09T22:46:38.017Z,52
2022-10-09T22:52:17.844Z,54
2022-10-09T22:58:00.873Z,48
2022-10-09T23:03:46.774Z,48
2022-10-09T23:09:26.714Z,48
2022-10-09T23:15:06.854Z,54
2022-10-09T23:20:49.810Z,46
2022-10-09T23:26:29.912Z,48
2022-10-09T23:32:12.853Z,40
2022-10-09T23:37:52.750Z,44
2022-10-09T23:43:32.953Z,54
2022-10-09T23:49:12.969Z,48
2022-10-09T23:54:54.300Z,54
